KGAD/GAD METAR and TAF weather

Enter ICAO airport designator
Station Type Date Time Source
KGAD METAR 2021/08/01 17:56 UTC NOAA

KGAD 011756Z AUTO 26006KT 10SM CLR 28/22 A3000 RMK AO2 SLP155 T02830222 10283 20217 58015


Station Type Date Time Source
KGAD Decoded METAR 2021/08/01 17:56 UTC NOAA

Gadsden, Gadsden Municipal Airport, AL, United States (KGAD) 33-58N 086-05W
Aug 01, 2021 - 01:56 PM EDT / 2021.08.01 1756 UTC
Wind: from the W (260 degrees) at 7 MPH (6 KT):0
Visibility: 10 mile(s):0
Sky conditions: clear
Temperature: 82.9 F (28.3 C)
Dew Point: 72.0 F (22.2 C)
Relative Humidity: 69%
Pressure (altimeter): 30 in. Hg (1015 hPa)
Pressure tendency: 0.04 inches (1.5 hPa) lower than three hours ago
ob: KGAD 011756Z AUTO 26006KT 10SM CLR 28/22 A3000 RMK AO2 SLP155 T02830222 10283 20217 58015
cycle: 18

Station Type Date Time Source
KGAD TAF UTC NOAA

Error!

Example: see airport list